FlightSource - Aviation Photo Database

World Wide Airport Lookup


Search by ICAO
Or
Search by City

FlightSource.ca - Aviation Photo Database - Shishmaref Airport Information
Airport Identification
Name: Shishmaref Airport
ICAO: PASH
IATA: SHH
Airport Location
City: Shishmaref
Region: AK
Country: United States
Continent: North America
Latitude: 66.2496
Longitude: -166.089
Airport Information
Type: Medium Airport
Elevation: 12 Feet ASL
Flight Status: PASH
More Info: PASH
Airport Weather    
Metar: PASH 260616Z AUTO 03009KT 10SM OVC110 09/06 A2983 RMK AO1 PNO
TAF:


Advertisement